Time;durP1;ratioP1;P1;durP2;ratioP2;P2;SDS_P1;SDS_P2;PMS_P1;PMS_P2;Temp;Humidity;BMP_temperature;BMP_pressure;BME280_temperature;BME280_humidity;BME280_pressure;Samples;Min_cycle;Max_cycle;Signal;HPM_P1;HPM_P2
2022/11/04 00:00:11;;;;;;;0.67;0.67;;;;;;;-141.59;100.00;61776.25;5081577;28;20227;-82
2022/11/04 00:02:39;;;;;;;0.60;0.60;;;;;;;-141.59;100.00;61776.25;5086912;28;20208;-82
2022/11/04 00:05:07;;;;;;;0.40;0.40;;;;;;;-141.59;100.00;61776.25;5085127;28;20206;-83
2022/11/04 00:12:23;;;;;;;2.23;0.60;;;;;;;-141.59;100.00;61776.25;5086280;28;20216;-82
2022/11/04 00:13:05;;;;;;;1.10;0.60;;;;;;;-141.59;100.00;61776.25;5087404;28;20205;-83
2022/11/04 00:18:22;;;;;;;1.50;0.70;;;;;;;-141.59;100.00;61776.25;5081691;28;20204;-82
2022/11/04 00:29:18;;;;;;;3.90;0.70;;;;;;;-141.59;100.00;61776.25;5040705;28;20206;-83
2022/11/04 00:34:34;;;;;;;0.63;0.63;;;;;;;-141.59;100.00;61776.25;5060942;28;20205;-83
2022/11/04 00:37:01;;;;;;;0.60;0.60;;;;;;;-141.59;100.00;61776.25;5087063;28;20220;-83
2022/11/04 00:39:29;;;;;;;1.80;0.60;;;;;;;-141.59;100.00;61776.25;5086685;28;20201;-83
2022/11/04 00:41:56;;;;;;;5.67;0.60;;;;;;;-141.59;100.00;61776.25;5082061;28;20234;-83
2022/11/04 00:44:23;;;;;;;0.60;0.60;;;;;;;-141.59;100.00;61776.25;5080972;28;20201;-83
2022/11/04 00:46:52;;;;;;;0.50;0.50;;;;;;;-141.59;100.00;61776.25;5086655;28;20230;-83
2022/11/04 00:49:19;;;;;;;0.60;0.60;;;;;;;-141.59;100.00;61776.25;5090359;28;20208;-83
2022/11/04 00:51:47;;;;;;;0.60;0.60;;;;;;;-141.59;100.00;61776.25;5078591;28;20205;-83
2022/11/04 00:54:14;;;;;;;2.30;0.60;;;;;;;-141.59;100.00;61776.25;5084255;28;20197;-83
2022/11/04 00:56:41;;;;;;;0.47;0.47;;;;;;;-141.59;100.00;61776.25;5091406;28;20193;-83
2022/11/04 00:59:09;;;;;;;0.47;0.47;;;;;;;-141.59;100.00;61776.25;5086737;28;20206;-83
2022/11/04 01:01:36;;;;;;;0.50;0.50;;;;;;;-141.59;100.00;61776.25;5083996;28;20201;-83
2022/11/04 01:04:05;;;;;;;0.50;0.50;;;;;;;-141.59;100.00;61776.25;5086879;28;20205;-83
2022/11/04 01:06:32;;;;;;;1.50;0.60;;;;;;;-141.59;100.00;61776.25;5084674;28;20223;-83
2022/11/04 01:09:01;;;;;;;0.40;0.40;;;;;;;-141.59;100.00;61776.25;5087579;28;20204;-83
2022/11/04 01:11:30;;;;;;;0.60;0.60;;;;;;;-141.59;100.00;61776.25;5083630;28;20225;-83
2022/11/04 01:13:57;;;;;;;0.50;0.50;;;;;;;-141.59;100.00;61776.25;5079263;28;20214;-83
2022/11/04 01:16:25;;;;;;;0.60;0.60;;;;;;;-141.59;100.00;61776.25;5087473;28;20193;-83
2022/11/04 01:18:52;;;;;;;1.87;0.67;;;;;;;-141.59;100.00;61776.25;5083255;28;20239;-83
2022/11/04 01:21:21;;;;;;;0.47;0.47;;;;;;;-141.59;100.00;61776.25;5088049;28;20225;-83
2022/11/04 01:23:48;;;;;;;1.07;0.60;;;;;;;-141.59;100.00;61776.25;5078465;28;20207;-83
2022/11/04 01:26:16;;;;;;;0.97;0.60;;;;;;;-141.59;100.00;61776.25;5080915;28;20246;-83
2022/11/04 01:28:43;;;;;;;0.40;0.40;;;;;;;-141.59;100.00;61776.25;5086513;28;20195;-83
2022/11/04 01:31:15;;;;;;;0.53;0.53;;;;;;;-141.59;100.00;61776.25;5080863;28;20286;-83
2022/11/04 01:33:42;;;;;;;0.50;0.50;;;;;;;-141.59;100.00;61776.25;5083086;28;20203;-83
2022/11/04 01:36:11;;;;;;;0.60;0.60;;;;;;;-141.59;100.00;61776.25;5085469;28;20240;-83
2022/11/04 01:38:41;;;;;;;0.50;0.50;;;;;;;-141.59;100.00;61776.25;5082472;28;20241;-83
2022/11/04 01:41:16;;;;;;;1.33;0.60;;;;;;;-141.59;100.00;61776.25;5084139;28;20211;-83
2022/11/04 01:43:52;;;;;;;0.50;0.50;;;;;;;-141.59;100.00;61776.25;5083588;28;20224;-83
2022/11/04 01:46:29;;;;;;;5.30;0.80;;;;;;;-141.59;100.00;61776.25;5086897;28;20226;-83
2022/11/04 01:49:01;;;;;;;0.97;0.60;;;;;;;-141.59;100.00;61776.25;5085057;28;20212;-83
2022/11/04 01:51:32;;;;;;;0.60;0.60;;;;;;;-141.59;100.00;61776.25;5074929;28;20226;-83
2022/11/04 01:54:02;;;;;;;0.70;0.60;;;;;;;-141.59;100.00;61776.25;5079854;28;20205;-83
2022/11/04 01:56:29;;;;;;;0.97;0.60;;;;;;;-141.59;100.00;61776.25;5086366;28;20209;-83
2022/11/04 01:59:01;;;;;;;0.50;0.50;;;;;;;-141.59;100.00;61776.25;5088647;28;20204;-83
2022/11/04 02:01:30;;;;;;;0.87;0.60;;;;;;;-141.59;100.00;61776.25;5088265;28;20282;-83
2022/11/04 02:04:24;;;;;;;0.60;0.60;;;;;;;-141.59;100.00;61776.25;5088048;28;20193;-83
2022/11/04 02:06:49;;;;;;;1.30;0.60;;;;;;;-141.59;100.00;61776.25;5084186;28;20201;-83
2022/11/04 02:09:20;;;;;;;0.77;0.70;;;;;;;-141.59;100.00;61776.25;5087356;28;20366;-83
2022/11/04 02:14:34;;;;;;;2.80;0.70;;;;;;;-141.59;100.00;61776.25;5077402;28;20234;-83
2022/11/04 02:17:11;;;;;;;2.20;0.70;;;;;;;-141.59;100.00;61776.25;5086945;28;20228;-83
2022/11/04 02:20:02;;;;;;;0.90;0.60;;;;;;;-141.59;100.00;61776.25;5087165;28;20224;-83
2022/11/04 02:22:52;;;;;;;0.90;0.70;;;;;;;-141.59;100.00;61776.25;5074292;28;20229;-83
2022/11/04 02:26:02;;;;;;;0.50;0.50;;;;;;;-141.59;100.00;61776.25;5079612;28;20217;-83
2022/11/04 02:29:01;;;;;;;0.57;0.57;;;;;;;-141.59;100.00;61776.25;5037850;28;20387;-83
2022/11/04 02:31:36;;;;;;;0.70;0.70;;;;;;;-141.59;100.00;61776.25;5085670;28;20301;-83
2022/11/04 02:34:16;;;;;;;0.77;0.60;;;;;;;-141.59;100.00;61776.25;5077517;28;20554;-83
2022/11/04 02:36:48;;;;;;;2.77;0.60;;;;;;;-141.59;100.00;61776.25;5085871;28;20311;-83
2022/11/04 02:39:25;;;;;;;1.57;0.80;;;;;;;-141.59;100.00;61776.25;5083886;28;20205;-83
2022/11/04 02:41:58;;;;;;;0.50;0.50;;;;;;;-141.59;100.00;61776.25;5080072;28;20232;-83
2022/11/04 02:44:33;;;;;;;0.60;0.60;;;;;;;-141.59;100.00;61776.25;5075711;28;20201;-83
2022/11/04 02:47:05;;;;;;;0.50;0.50;;;;;;;-141.59;100.00;61776.25;5078339;28;20200;-83
2022/11/04 02:49:38;;;;;;;0.50;0.50;;;;;;;-141.59;100.00;61776.25;5087809;28;20223;-83
2022/11/04 02:52:08;;;;;;;0.60;0.60;;;;;;;-141.59;100.00;61776.25;5080884;28;20235;-83
2022/11/04 02:54:41;;;;;;;0.50;0.50;;;;;;;-141.59;100.00;61776.25;5080226;28;20246;-83
2022/11/04 02:57:13;;;;;;;0.53;0.53;;;;;;;-141.59;100.00;61776.25;5076267;28;20265;-83
2022/11/04 02:59:45;;;;;;;0.60;0.60;;;;;;;-141.59;100.00;61776.25;5084079;28;20295;-83
2022/11/04 03:02:19;;;;;;;0.60;0.60;;;;;;;-141.59;100.00;61776.25;5086022;28;20197;-83
2022/11/04 03:04:51;;;;;;;0.70;0.70;;;;;;;-141.59;100.00;61776.25;5087263;28;20197;-83
2022/11/04 03:07:24;;;;;;;0.60;0.60;;;;;;;-141.59;100.00;61776.25;5086101;28;20236;-83
2022/11/04 03:09:55;;;;;;;0.60;0.60;;;;;;;-141.59;100.00;61776.25;5081431;28;20205;-83
2022/11/04 03:12:29;;;;;;;0.70;0.70;;;;;;;-141.59;100.00;61776.25;5082454;28;20256;-83
2022/11/04 03:15:03;;;;;;;0.60;0.60;;;;;;;-141.59;100.00;61776.25;5081955;28;20201;-83
2022/11/04 03:17:37;;;;;;;0.73;0.53;;;;;;;-141.59;100.00;61776.25;5083739;28;20201;-83
2022/11/04 03:20:13;;;;;;;1.37;0.70;;;;;;;-141.59;100.00;61776.25;5082988;28;20307;-83
2022/11/04 03:22:40;;;;;;;0.60;0.60;;;;;;;-141.59;100.00;61776.25;5082648;28;20191;-83
2022/11/04 03:25:10;;;;;;;1.13;0.70;;;;;;;-141.59;100.00;61776.25;5077045;28;20212;-83
2022/11/04 03:27:48;;;;;;;0.60;0.60;;;;;;;-141.59;100.00;61776.25;5076939;28;20221;-83
2022/11/04 03:30:17;;;;;;;2.80;0.80;;;;;;;-141.59;100.00;61776.25;5086679;28;20228;-83
2022/11/04 03:32:54;;;;;;;0.50;0.50;;;;;;;-141.59;100.00;61776.25;5087246;28;20193;-83
2022/11/04 03:35:21;;;;;;;0.60;0.60;;;;;;;-141.59;100.00;61776.25;5081035;28;20224;-83
2022/11/04 03:37:49;;;;;;;0.70;0.70;;;;;;;-141.59;100.00;61776.25;5084506;28;20201;-83
2022/11/04 03:40:18;;;;;;;0.80;0.73;;;;;;;-141.59;100.00;61776.25;5083728;28;20295;-83
2022/11/04 03:42:49;;;;;;;0.83;0.63;;;;;;;-141.59;100.00;61776.25;5081493;28;20287;-83
2022/11/04 03:45:17;;;;;;;0.53;0.53;;;;;;;-141.59;100.00;61776.25;5074074;28;20197;-83
2022/11/04 03:47:44;;;;;;;0.93;0.77;;;;;;;-141.59;100.00;61776.25;5079686;28;20204;-83
2022/11/04 03:50:18;;;;;;;1.70;0.70;;;;;;;-141.59;100.00;61776.25;5085766;28;20196;-83
2022/11/04 03:52:46;;;;;;;1.17;0.80;;;;;;;-141.59;100.00;61776.25;5084090;28;20208;-83
2022/11/04 03:55:13;;;;;;;0.60;0.60;;;;;;;-141.59;100.00;61776.25;5084772;28;20219;-83
2022/11/04 03:57:48;;;;;;;1.70;1.00;;;;;;;-141.59;100.00;61776.25;5079403;28;20212;-83
2022/11/04 04:00:18;;;;;;;0.80;0.80;;;;;;;-141.59;100.00;61776.25;5082339;28;20209;-83
2022/11/04 04:03:10;;;;;;;0.83;0.83;;;;;;;-141.59;100.00;61776.25;5080119;28;20212;-83
2022/11/04 04:05:47;;;;;;;1.13;0.80;;;;;;;-141.59;100.00;61776.25;5074276;28;20231;-83
2022/11/04 04:08:25;;;;;;;0.93;0.87;;;;;;;-141.59;100.00;61776.25;5083958;28;20470;-83
2022/11/04 04:11:03;;;;;;;0.77;0.70;;;;;;;-141.59;100.00;61776.25;5084315;28;20963;-82
2022/11/04 04:13:37;;;;;;;1.10;0.77;;;;;;;-141.59;100.00;61776.25;5078325;28;20200;-83
2022/11/04 04:16:10;;;;;;;1.23;1.00;;;;;;;-141.59;100.00;61776.25;5074989;28;20209;-82
2022/11/04 04:18:43;;;;;;;0.70;0.70;;;;;;;-141.59;100.00;61776.25;5076781;28;20229;-83
2022/11/04 04:21:17;;;;;;;0.90;0.90;;;;;;;-141.59;100.00;61776.25;5084269;28;20251;-83
2022/11/04 04:29:20;;;;;;;0.87;0.70;;;;;;;-141.59;100.00;61776.25;5078718;28;20213;-83
2022/11/04 04:31:56;;;;;;;0.80;0.80;;;;;;;-141.59;100.00;61776.25;5086720;28;20278;-83
2022/11/04 04:34:25;;;;;;;1.07;0.97;;;;;;;-141.59;100.00;61776.25;5083390;28;20305;-83
2022/11/04 04:37:00;;;;;;;1.70;0.90;;;;;;;-141.59;100.00;61776.25;5083859;28;20224;-83
2022/11/04 04:45:06;;;;;;;1.27;1.00;;;;;;;-141.59;100.00;61776.25;5078353;28;20257;-83
2022/11/04 04:47:40;;;;;;;1.10;0.90;;;;;;;-141.59;100.00;61776.25;5083874;28;20216;-83
2022/11/04 04:50:08;;;;;;;1.13;1.03;;;;;;;-141.59;100.00;61776.25;5081659;28;20206;-83
2022/11/04 04:52:39;;;;;;;2.53;1.03;;;;;;;-141.59;100.00;61776.25;5072518;28;20275;-83
2022/11/04 04:55:07;;;;;;;1.77;0.87;;;;;;;-141.59;100.00;61776.25;5077031;28;20237;-83
2022/11/04 04:57:34;;;;;;;0.73;0.73;;;;;;;-141.59;100.00;61776.25;5080082;28;20205;-82
2022/11/04 05:00:01;;;;;;;1.87;1.40;;;;;;;-141.59;100.00;61776.25;5073283;28;20292;-83
2022/11/04 05:02:31;;;;;;;3.83;1.50;;;;;;;-141.59;100.00;61776.25;5086524;28;20459;-83
2022/11/04 05:04:58;;;;;;;0.93;0.87;;;;;;;-141.59;100.00;61776.25;5080097;28;20204;-83
2022/11/04 05:07:26;;;;;;;1.03;0.90;;;;;;;-141.59;100.00;61776.25;5080954;28;20204;-83
2022/11/04 05:09:54;;;;;;;1.07;0.90;;;;;;;-141.59;100.00;61776.25;5087765;28;20260;-83
2022/11/04 05:12:21;;;;;;;4.70;2.03;;;;;;;-141.59;100.00;61776.25;5085586;28;20220;-83
2022/11/04 05:14:49;;;;;;;1.57;1.20;;;;;;;-141.59;100.00;61776.25;5086443;28;20255;-83
2022/11/04 05:17:17;;;;;;;0.73;0.73;;;;;;;-141.59;100.00;61776.25;5088170;28;20206;-83
2022/11/04 05:19:45;;;;;;;1.00;0.60;;;;;;;-141.59;100.00;61776.25;5089970;28;20228;-82
2022/11/04 05:22:12;;;;;;;0.87;0.80;;;;;;;-141.59;100.00;61776.25;5083120;28;20205;-83
2022/11/04 05:24:39;;;;;;;1.17;1.03;;;;;;;-141.59;100.00;61776.25;5082925;28;20205;-83
2022/11/04 05:27:08;;;;;;;3.10;1.53;;;;;;;-141.59;100.00;61776.25;5080919;28;20212;-83
2022/11/04 05:29:35;;;;;;;2.07;0.90;;;;;;;-141.59;100.00;61776.25;5078497;28;20189;-83
2022/11/04 05:32:02;;;;;;;1.03;1.00;;;;;;;-141.59;100.00;61776.25;5084886;28;20216;-83
2022/11/04 05:34:31;;;;;;;1.10;1.00;;;;;;;-141.59;100.00;61776.25;5080504;28;20208;-83
2022/11/04 05:37:02;;;;;;;0.63;0.63;;;;;;;-141.59;100.00;61776.25;5078555;28;20209;-83
2022/11/04 05:39:29;;;;;;;1.10;1.00;;;;;;;-141.59;100.00;61776.25;5087391;28;20201;-83
2022/11/04 05:41:56;;;;;;;1.23;1.10;;;;;;;-141.59;100.00;61776.25;5077743;28;20236;-83
2022/11/04 05:44:24;;;;;;;2.10;1.20;;;;;;;-141.59;100.00;61776.25;5084394;28;20201;-82
2022/11/04 05:46:51;;;;;;;3.40;1.50;;;;;;;-141.59;100.00;61776.25;5084276;28;20218;-83
2022/11/04 05:49:18;;;;;;;2.00;1.80;;;;;;;-141.59;100.00;61776.25;5087306;28;20326;-83
2022/11/04 05:51:45;;;;;;;4.27;1.90;;;;;;;-141.59;100.00;61776.25;5088136;28;20224;-83
2022/11/04 05:54:12;;;;;;;2.03;1.20;;;;;;;-141.59;100.00;61776.25;5081926;28;20288;-83
2022/11/04 05:56:40;;;;;;;1.10;1.00;;;;;;;-141.59;100.00;61776.25;5088933;28;20864;-83
2022/11/04 05:59:07;;;;;;;1.40;1.20;;;;;;;-141.59;100.00;61776.25;5090184;28;20243;-83
2022/11/04 06:01:37;;;;;;;2.37;1.20;;;;;;;-141.59;100.00;61776.25;5080414;28;20206;-83
2022/11/04 06:04:06;;;;;;;1.20;1.10;;;;;;;-141.59;100.00;61776.25;5082572;28;20209;-83
2022/11/04 06:06:35;;;;;;;1.10;1.00;;;;;;;-141.59;100.00;61776.25;5088125;28;20205;-83
2022/11/04 06:09:03;;;;;;;1.17;1.00;;;;;;;-141.59;100.00;61776.25;5085599;28;20210;-83
2022/11/04 06:11:32;;;;;;;2.50;1.13;;;;;;;-141.59;100.00;61776.25;5083465;28;20217;-83
2022/11/04 06:13:59;;;;;;;1.30;1.10;;;;;;;-141.59;100.00;61776.25;5078923;28;20248;-83
2022/11/04 06:16:26;;;;;;;1.30;1.20;;;;;;;-141.59;100.00;61776.25;5077708;28;20220;-83
2022/11/04 06:18:56;;;;;;;1.63;1.53;;;;;;;-141.59;100.00;61776.25;5096402;27;20239;-82
2022/11/04 06:21:30;;;;;;;1.07;1.00;;;;;;;-141.59;100.00;61776.25;5075910;28;20198;-83
2022/11/04 06:24:02;;;;;;;0.80;0.80;;;;;;;-141.59;100.00;61776.25;5087053;28;20228;-82
2022/11/04 06:26:30;;;;;;;1.10;0.80;;;;;;;-141.59;100.00;61776.25;5087484;28;20287;-82
2022/11/04 06:28:57;;;;;;;0.83;0.70;;;;;;;-141.59;100.00;61776.25;5077215;28;20189;-83
2022/11/04 06:31:27;;;;;;;1.20;1.10;;;;;;;-141.59;100.00;61776.25;5081779;28;20220;-83
2022/11/04 06:33:55;;;;;;;2.03;1.60;;;;;;;-141.59;100.00;61776.25;5081587;28;20202;-83
2022/11/04 06:36:22;;;;;;;1.27;1.17;;;;;;;-141.59;100.00;61776.25;5081044;28;20283;-83
2022/11/04 06:38:49;;;;;;;1.30;1.20;;;;;;;-141.59;100.00;61776.25;5086063;28;20208;-83
2022/11/04 06:41:17;;;;;;;1.40;1.30;;;;;;;-141.59;100.00;61776.25;5077837;28;20197;-83
2022/11/04 06:43:44;;;;;;;2.27;1.47;;;;;;;-141.59;100.00;61776.25;5084317;28;20197;-83
2022/11/04 06:46:26;;;;;;;1.87;1.50;;;;;;;-141.59;100.00;61776.25;5078730;28;20287;-82
2022/11/04 06:48:54;;;;;;;1.83;1.20;;;;;;;-141.59;100.00;61776.25;5078352;28;20205;-82
2022/11/04 06:51:22;;;;;;;1.30;1.20;;;;;;;-141.59;100.00;61776.25;5084827;28;20217;-83
2022/11/04 06:53:49;;;;;;;1.40;1.10;;;;;;;-141.59;100.00;61776.25;5084589;28;20200;-83
2022/11/04 06:56:16;;;;;;;0.70;0.70;;;;;;;-141.59;100.00;61776.25;5076765;28;20220;-83
2022/11/04 06:58:43;;;;;;;1.00;0.90;;;;;;;-141.59;100.00;61776.25;5081551;28;20526;-83
2022/11/04 07:01:11;;;;;;;0.97;0.90;;;;;;;-141.59;100.00;61776.25;5084123;28;20223;-83
2022/11/04 07:03:38;;;;;;;1.83;0.80;;;;;;;-141.59;100.00;61776.25;5079325;28;20243;-83
2022/11/04 07:06:11;;;;;;;1.70;0.90;;;;;;;-141.59;100.00;61776.25;5087013;28;20220;-83
2022/11/04 07:08:41;;;;;;;1.00;0.90;;;;;;;-141.59;100.00;61776.25;5085371;28;20220;-83
2022/11/04 07:11:08;;;;;;;1.90;1.10;;;;;;;-141.59;100.00;61776.25;5081712;28;20205;-83
2022/11/04 07:13:35;;;;;;;1.97;1.63;;;;;;;-141.59;100.00;61776.25;5081096;28;20196;-83
2022/11/04 07:16:05;;;;;;;2.13;1.50;;;;;;;-141.59;100.00;61776.25;5083803;28;20204;-83
2022/11/04 07:18:36;;;;;;;2.13;1.93;;;;;;;-141.59;100.00;61776.25;5084901;28;20274;-82
2022/11/04 07:21:05;;;;;;;2.43;1.93;;;;;;;-141.59;100.00;61776.25;5074977;28;20202;-82
2022/11/04 07:23:37;;;;;;;2.00;1.53;;;;;;;-141.59;100.00;61776.25;5084598;28;20189;-83
2022/11/04 07:26:06;;;;;;;12.27;11.03;;;;;;;-141.59;100.00;61776.25;5085621;28;20235;-83
2022/11/04 07:28:34;;;;;;;9.13;8.03;;;;;;;-141.59;100.00;61776.25;5077357;28;20243;-83
2022/11/04 07:31:06;;;;;;;6.73;6.00;;;;;;;-141.59;100.00;61776.25;5084166;28;20209;-83
2022/11/04 07:33:35;;;;;;;3.23;2.90;;;;;;;-141.59;100.00;61776.25;5078746;28;20229;-83
2022/11/04 07:36:07;;;;;;;2.27;2.03;;;;;;;-141.59;100.00;61776.25;5081833;28;20236;-83
2022/11/04 07:38:35;;;;;;;2.10;1.50;;;;;;;-141.59;100.00;61776.25;5080520;28;20216;-82
2022/11/04 07:41:03;;;;;;;2.20;2.00;;;;;;;-141.59;100.00;61776.25;5082633;28;20204;-82
2022/11/04 07:43:30;;;;;;;3.50;2.93;;;;;;;-141.59;100.00;61776.25;5083195;28;20260;-82
2022/11/04 07:46:03;;;;;;;5.00;3.17;;;;;;;-141.59;100.00;61776.25;5080174;28;20347;-83
2022/11/04 07:48:30;;;;;;;3.00;2.63;;;;;;;-141.59;100.00;61776.25;5084155;28;20237;-83
2022/11/04 07:50:58;;;;;;;3.37;2.73;;;;;;;-141.59;100.00;61776.25;5083573;28;20204;-81
2022/11/04 07:53:26;;;;;;;5.50;3.50;;;;;;;-141.59;100.00;61776.25;5089945;28;20252;-81
2022/11/04 07:55:56;;;;;;;4.17;3.50;;;;;;;-141.59;100.00;61776.25;5084002;28;20205;-81
2022/11/04 07:58:25;;;;;;;3.53;3.10;;;;;;;-141.59;100.00;61776.25;5096006;28;20265;-81
2022/11/04 08:00:58;;;;;;;3.47;3.00;;;;;;;-141.59;100.00;61776.25;5086460;28;20233;-81
2022/11/04 08:03:26;;;;;;;3.87;3.03;;;;;;;-141.59;100.00;61776.25;5085167;28;20285;-81
2022/11/04 08:05:56;;;;;;;3.00;2.30;;;;;;;-141.59;100.00;61776.25;5091167;28;20198;-81
2022/11/04 08:08:24;;;;;;;3.50;2.80;;;;;;;-141.59;100.00;61776.25;5086248;28;20193;-81
2022/11/04 08:10:57;;;;;;;2.50;2.30;;;;;;;-141.59;100.00;61776.25;5077469;28;20229;-81
2022/11/04 08:13:28;;;;;;;3.07;2.50;;;;;;;-141.59;100.00;61776.25;5086047;28;20274;-81
2022/11/04 08:16:00;;;;;;;4.00;2.60;;;;;;;-141.59;100.00;61776.25;5083055;28;20209;-82
2022/11/04 08:18:31;;;;;;;4.90;2.37;;;;;;;-141.59;100.00;61776.25;5073263;28;20217;-82
2022/11/04 08:20:58;;;;;;;2.13;1.80;;;;;;;-141.59;100.00;61776.25;5079851;28;20289;-81
2022/11/04 08:23:25;;;;;;;3.67;2.27;;;;;;;-141.59;100.00;61776.25;5081817;28;20193;-82
2022/11/04 08:25:52;;;;;;;2.10;1.80;;;;;;;-141.59;100.00;61776.25;5082429;28;20209;-81
2022/11/04 08:28:23;;;;;;;2.20;1.83;;;;;;;-141.59;100.00;61776.25;5074282;28;20201;-81
2022/11/04 08:30:55;;;;;;;2.27;1.93;;;;;;;-141.59;100.00;61776.25;5081222;28;20208;-81
2022/11/04 08:33:24;;;;;;;2.07;1.50;;;;;;;-141.59;100.00;61776.25;5093246;28;20254;-82
2022/11/04 08:35:51;;;;;;;1.80;1.70;;;;;;;-141.59;100.00;61776.25;5086159;28;20259;-81
2022/11/04 08:38:19;;;;;;;2.07;1.47;;;;;;;-141.59;100.00;61776.25;5083543;28;20522;-81
2022/11/04 08:40:48;;;;;;;3.10;2.23;;;;;;;-141.59;100.00;61776.25;5077060;28;20211;-81
2022/11/04 08:43:15;;;;;;;1.57;1.40;;;;;;;-141.59;100.00;61776.25;5083726;28;20206;-81
2022/11/04 08:45:46;;;;;;;1.67;1.27;;;;;;;-141.59;100.00;61776.25;5077277;28;20222;-81
2022/11/04 08:48:15;;;;;;;1.93;1.40;;;;;;;-141.59;100.00;61776.25;5075649;28;20301;-81
2022/11/04 08:50:43;;;;;;;1.40;1.30;;;;;;;-141.59;100.00;61776.25;5088901;28;20223;-81
2022/11/04 08:53:10;;;;;;;2.03;1.60;;;;;;;-141.59;100.00;61776.25;5080961;28;20221;-81
2022/11/04 08:55:37;;;;;;;2.47;1.83;;;;;;;-141.59;100.00;61776.25;5086441;28;20214;-81
2022/11/04 08:58:04;;;;;;;2.33;2.07;;;;;;;-141.59;100.00;61776.25;5082197;28;20208;-82
2022/11/04 09:00:37;;;;;;;3.03;2.17;;;;;;;-141.59;100.00;61776.25;5091306;28;20212;-82
2022/11/04 09:03:07;;;;;;;4.03;1.97;;;;;;;-141.59;100.00;61776.25;5086337;28;20258;-81
2022/11/04 09:05:40;;;;;;;2.97;2.13;;;;;;;-141.59;100.00;61776.25;5092236;28;20201;-82
2022/11/04 09:08:08;;;;;;;2.27;1.87;;;;;;;-141.59;100.00;61776.25;5087898;28;20205;-81
2022/11/04 09:10:35;;;;;;;2.13;1.90;;;;;;;-141.59;100.00;61776.25;5086780;28;20204;-81
2022/11/04 09:13:02;;;;;;;2.03;1.60;;;;;;;-141.59;100.00;61776.25;5087089;28;20220;-81
2022/11/04 09:15:30;;;;;;;1.40;1.30;;;;;;;-141.59;100.00;61776.25;5085700;28;20291;-81
2022/11/04 09:17:57;;;;;;;1.77;1.33;;;;;;;-141.59;100.00;61776.25;5085740;28;20276;-82
2022/11/04 09:20:30;;;;;;;2.73;1.63;;;;;;;-141.59;100.00;61776.25;5074249;28;20308;-81
2022/11/04 09:22:57;;;;;;;1.87;1.67;;;;;;;-141.59;100.00;61776.25;5088279;28;20192;-80
2022/11/04 09:25:25;;;;;;;1.60;1.40;;;;;;;-141.59;100.00;61776.25;5078822;28;20197;-80
2022/11/04 09:27:53;;;;;;;1.57;1.17;;;;;;;-141.59;100.00;61776.25;5083761;28;20511;-80
2022/11/04 09:30:20;;;;;;;1.40;1.10;;;;;;;-141.59;100.00;61776.25;5087327;28;20207;-80
2022/11/04 09:32:47;;;;;;;1.00;0.90;;;;;;;-141.59;100.00;61776.25;5089149;28;20304;-80
2022/11/04 09:35:16;;;;;;;1.03;0.90;;;;;;;-141.59;100.00;61776.25;5084737;28;20370;-82
2022/11/04 09:37:45;;;;;;;2.10;1.00;;;;;;;-141.59;100.00;61776.25;5087156;28;20295;-81
2022/11/04 09:40:16;;;;;;;1.53;1.03;;;;;;;-141.59;100.00;61776.25;5083615;28;20288;-81
2022/11/04 09:42:57;;;;;;;0.93;0.83;;;;;;;-141.59;100.00;61776.25;5089867;28;20566;-81
2022/11/04 09:45:27;;;;;;;0.83;0.83;;;;;;;-141.59;100.00;61776.25;5084949;28;20221;-81
2022/11/04 09:48:01;;;;;;;1.20;0.80;;;;;;;-141.59;100.00;61776.25;5086817;28;20212;-82
2022/11/04 09:50:49;;;;;;;1.10;1.00;;;;;;;-141.59;100.00;61776.25;5086976;28;20290;-82
2022/11/04 09:53:22;;;;;;;1.93;1.00;;;;;;;-141.59;100.00;61776.25;5079155;28;20269;-82
2022/11/04 09:55:54;;;;;;;2.07;1.20;;;;;;;-141.59;100.00;61776.25;5084471;28;20225;-82
2022/11/04 09:58:22;;;;;;;1.43;1.10;;;;;;;-141.59;100.00;61776.25;5088368;28;20207;-82
2022/11/04 10:01:00;;;;;;;1.50;1.07;;;;;;;-141.59;100.00;61776.25;5083326;28;20193;-81
2022/11/04 10:03:48;;;;;;;1.00;0.87;;;;;;;-141.59;100.00;61776.25;5084626;28;20205;-82
2022/11/04 10:06:33;;;;;;;1.10;1.00;;;;;;;-141.59;100.00;61776.25;5082587;28;20298;-82
2022/11/04 10:09:13;;;;;;;1.10;1.00;;;;;;;-141.59;100.00;61776.25;5076798;28;20205;-83
2022/11/04 10:11:51;;;;;;;0.80;0.80;;;;;;;-141.59;100.00;61776.25;5091748;28;20207;-83
2022/11/04 10:14:45;;;;;;;2.97;2.07;;;;;;;-141.59;100.00;61776.25;5088737;28;20254;-83
2022/11/04 10:17:26;;;;;;;2.73;2.13;;;;;;;-141.59;100.00;61776.25;5095954;28;20232;-83
2022/11/04 10:20:03;;;;;;;2.97;1.10;;;;;;;-141.59;100.00;61776.25;5081852;28;20225;-83
2022/11/04 10:22:34;;;;;;;2.20;1.50;;;;;;;-141.59;100.00;61776.25;5089927;28;20204;-83
2022/11/04 10:25:13;;;;;;;2.70;1.93;;;;;;;-141.59;100.00;61776.25;5084438;28;20208;-83
2022/11/04 10:27:44;;;;;;;1.80;1.10;;;;;;;-141.59;100.00;61776.25;5083304;28;20212;-83
2022/11/04 10:30:16;;;;;;;1.73;1.30;;;;;;;-141.59;100.00;61776.25;5082977;28;20217;-84
2022/11/04 10:32:54;;;;;;;0.97;0.90;;;;;;;-141.59;100.00;61776.25;5087399;28;20231;-83
2022/11/04 10:35:30;;;;;;;1.23;0.93;;;;;;;-141.59;100.00;61776.25;5083085;28;20256;-83
2022/11/04 10:38:02;;;;;;;1.20;1.00;;;;;;;-141.59;100.00;61776.25;5083319;28;20209;-84
2022/11/04 10:40:37;;;;;;;2.23;0.80;;;;;;;-141.59;100.00;61776.25;5084363;28;20201;-85
2022/11/04 10:43:10;;;;;;;1.10;0.90;;;;;;;-141.59;100.00;61776.25;5080466;28;20273;-85
2022/11/04 10:45:43;;;;;;;1.77;1.50;;;;;;;-141.59;100.00;61776.25;5081986;28;20252;-84
2022/11/04 10:48:20;;;;;;;1.23;1.07;;;;;;;-141.59;100.00;61776.25;5074723;28;20296;-84
2022/11/04 10:50:53;;;;;;;1.30;1.10;;;;;;;-141.59;100.00;61776.25;5074942;28;20254;-85
2022/11/04 10:53:23;;;;;;;1.77;0.97;;;;;;;-141.59;100.00;61776.25;5085162;28;20308;-84
2022/11/04 10:56:02;;;;;;;1.70;0.87;;;;;;;-141.59;100.00;61776.25;5073082;28;20210;-85
2022/11/04 10:58:32;;;;;;;0.80;0.80;;;;;;;-141.59;100.00;61776.25;5096449;28;20204;-85
2022/11/04 11:00:59;;;;;;;1.13;0.97;;;;;;;-141.59;100.00;61776.25;5080926;28;20236;-84
2022/11/04 11:03:33;;;;;;;1.10;0.97;;;;;;;-141.59;100.00;61776.25;5099891;28;20205;-84
2022/11/04 11:06:22;;;;;;;2.20;1.00;;;;;;;-141.59;100.00;61776.25;5094296;28;20205;-85
2022/11/04 11:08:49;;;;;;;1.63;1.10;;;;;;;-141.59;100.00;61776.25;5072122;28;20205;-85
2022/11/04 11:11:35;;;;;;;2.67;1.10;;;;;;;-141.59;100.00;61776.25;5075754;28;20212;-85
2022/11/04 11:14:03;;;;;;;1.73;1.20;;;;;;;-141.59;100.00;61776.25;5075383;28;20244;-84
2022/11/04 11:16:30;;;;;;;1.90;1.43;;;;;;;-141.59;100.00;61776.25;5086487;28;20201;-84
2022/11/04 11:19:26;;;;;;;2.63;1.20;;;;;;;-141.59;100.00;61776.25;5083388;28;20227;-83
2022/11/04 11:21:55;;;;;;;1.67;1.10;;;;;;;-141.59;100.00;61776.25;5039538;28;20239;-83
2022/11/04 11:24:25;;;;;;;1.83;1.20;;;;;;;-141.59;100.00;61776.25;5088704;28;20211;-83
2022/11/04 11:26:57;;;;;;;1.40;1.13;;;;;;;-141.59;100.00;61776.25;5083800;28;20236;-83
2022/11/04 11:29:27;;;;;;;2.30;1.13;;;;;;;-141.59;100.00;61776.25;5081166;28;20215;-83
2022/11/04 11:31:56;;;;;;;1.50;1.10;;;;;;;-141.59;100.00;61776.25;5086123;28;20201;-84
2022/11/04 11:34:27;;;;;;;1.50;1.10;;;;;;;-141.59;100.00;61776.25;5077841;28;20221;-84
2022/11/04 11:37:01;;;;;;;1.00;1.00;;;;;;;-141.59;100.00;61776.25;5082263;28;20201;-84
2022/11/04 11:39:31;;;;;;;1.67;1.00;;;;;;;-141.59;100.00;61776.25;5080231;28;20205;-84
2022/11/04 11:42:01;;;;;;;2.93;1.70;;;;;;;-141.59;100.00;61776.25;5086743;28;20228;-84
2022/11/04 11:44:35;;;;;;;1.47;1.10;;;;;;;-141.59;100.00;61776.25;5078121;28;20221;-84
2022/11/04 11:47:06;;;;;;;1.10;1.00;;;;;;;-141.59;100.00;61776.25;5083823;28;20201;-84
2022/11/04 11:49:38;;;;;;;1.67;1.00;;;;;;;-141.59;100.00;61776.25;5076286;28;20205;-83
2022/11/04 11:52:32;;;;;;;2.20;1.10;;;;;;;-141.59;100.00;61776.25;5081935;28;20202;-83
2022/11/04 11:55:06;;;;;;;1.70;0.90;;;;;;;-141.59;100.00;61776.25;5078490;28;20208;-83
2022/11/04 11:57:45;;;;;;;1.87;1.07;;;;;;;-141.59;100.00;61776.25;5101231;28;20296;-83